sensor_id;sensor_type;location;lat;lon;timestamp;P1;P2;P0
63305;PMS5003;50735;52.060;1.248;2022-10-30T00:02:01;21;20;
63305;PMS5003;50735;52.060;1.248;2022-10-30T00:04:27;23;20;
63305;PMS5003;50735;52.060;1.248;2022-10-30T00:06:54;27;19;
63305;PMS5003;50735;52.060;1.248;2022-10-30T00:09:21;18;15;
63305;PMS5003;50735;52.060;1.248;2022-10-30T00:11:48;25;20;
63305;PMS5003;50735;52.060;1.248;2022-10-30T00:14:15;23;17;
63305;PMS5003;50735;52.060;1.248;2022-10-30T00:16:42;19;16;
63305;PMS5003;50735;52.060;1.248;2022-10-30T00:19:08;19;15;
63305;PMS5003;50735;52.060;1.248;2022-10-30T00:21:35;14;14;
63305;PMS5003;50735;52.060;1.248;2022-10-30T00:24:02;21;17;
63305;PMS5003;50735;52.060;1.248;2022-10-30T00:26:29;18;15;
63305;PMS5003;50735;52.060;1.248;2022-10-30T00:28:56;26;19;
63305;PMS5003;50735;52.060;1.248;2022-10-30T00:31:23;19;15;
63305;PMS5003;50735;52.060;1.248;2022-10-30T00:33:50;19;16;
63305;PMS5003;50735;52.060;1.248;2022-10-30T00:36:18;24;17;
63305;PMS5003;50735;52.060;1.248;2022-10-30T00:38:45;24;21;
63305;PMS5003;50735;52.060;1.248;2022-10-30T00:41:13;22;19;
63305;PMS5003;50735;52.060;1.248;2022-10-30T00:43:41;19;17;
63305;PMS5003;50735;52.060;1.248;2022-10-30T00:46:12;20;17;
63305;PMS5003;50735;52.060;1.248;2022-10-30T00:48:44;18;16;
63305;PMS5003;50735;52.060;1.248;2022-10-30T00:51:17;16;14;
63305;PMS5003;50735;52.060;1.248;2022-10-30T00:53:45;18;17;
63305;PMS5003;50735;52.060;1.248;2022-10-30T00:56:12;16;15;
63305;PMS5003;50735;52.060;1.248;2022-10-30T00:58:43;17;16;
63305;PMS5003;50735;52.060;1.248;2022-10-30T01:01:15;17;16;
63305;PMS5003;50735;52.060;1.248;2022-10-30T01:03:44;17;13;
63305;PMS5003;50735;52.060;1.248;2022-10-30T01:06:14;17;13;
63305;PMS5003;50735;52.060;1.248;2022-10-30T01:08:43;19;15;
63305;PMS5003;50735;52.060;1.248;2022-10-30T01:11:11;13;12;
63305;PMS5003;50735;52.060;1.248;2022-10-30T01:13:38;15;12;
63305;PMS5003;50735;52.060;1.248;2022-10-30T01:16:09;16;13;
63305;PMS5003;50735;52.060;1.248;2022-10-30T01:18:46;16;13;
63305;PMS5003;50735;52.060;1.248;2022-10-30T01:21:26;16;10;
63305;PMS5003;50735;52.060;1.248;2022-10-30T01:24:09;18;10;
63305;PMS5003;50735;52.060;1.248;2022-10-30T01:26:49;14;11;
63305;PMS5003;50735;52.060;1.248;2022-10-30T01:29:27;10;9;
63305;PMS5003;50735;52.060;1.248;2022-10-30T01:32:11;13;11;
63305;PMS5003;50735;52.060;1.248;2022-10-30T01:34:50;12;12;
63305;PMS5003;50735;52.060;1.248;2022-10-30T01:37:24;12;12;
63305;PMS5003;50735;52.060;1.248;2022-10-30T01:40:02;10;10;
63305;PMS5003;50735;52.060;1.248;2022-10-30T01:42:42;14;14;
63305;PMS5003;50735;52.060;1.248;2022-10-30T01:45:12;16;13;
63305;PMS5003;50735;52.060;1.248;2022-10-30T01:47:46;13;13;
63305;PMS5003;50735;52.060;1.248;2022-10-30T01:50:26;18;15;
63305;PMS5003;50735;52.060;1.248;2022-10-30T01:53:03;18;12;
63305;PMS5003;50735;52.060;1.248;2022-10-30T01:55:40;14;11;
63305;PMS5003;50735;52.060;1.248;2022-10-30T01:58:16;16;12;
63305;PMS5003;50735;52.060;1.248;2022-10-30T02:00:49;13;13;
63305;PMS5003;50735;52.060;1.248;2022-10-30T02:03:20;16;14;
63305;PMS5003;50735;52.060;1.248;2022-10-30T02:05:48;10;10;
63305;PMS5003;50735;52.060;1.248;2022-10-30T02:08:16;15;11;
63305;PMS5003;50735;52.060;1.248;2022-10-30T02:10:45;13;13;
63305;PMS5003;50735;52.060;1.248;2022-10-30T02:13:14;12;11;
63305;PMS5003;50735;52.060;1.248;2022-10-30T02:15:42;12;12;
63305;PMS5003;50735;52.060;1.248;2022-10-30T02:18:10;12;10;
63305;PMS5003;50735;52.060;1.248;2022-10-30T02:20:37;16;10;
63305;PMS5003;50735;52.060;1.248;2022-10-30T02:23:04;18;12;
63305;PMS5003;50735;52.060;1.248;2022-10-30T02:25:32;13;10;
63305;PMS5003;50735;52.060;1.248;2022-10-30T02:27:58;13;12;
63305;PMS5003;50735;52.060;1.248;2022-10-30T02:30:25;13;10;
63305;PMS5003;50735;52.060;1.248;2022-10-30T02:32:52;15;14;
63305;PMS5003;50735;52.060;1.248;2022-10-30T02:35:19;12;10;
63305;PMS5003;50735;52.060;1.248;2022-10-30T02:37:46;17;12;
63305;PMS5003;50735;52.060;1.248;2022-10-30T02:40:13;10;10;
63305;PMS5003;50735;52.060;1.248;2022-10-30T02:42:40;11;9;
63305;PMS5003;50735;52.060;1.248;2022-10-30T02:45:07;12;7;
63305;PMS5003;50735;52.060;1.248;2022-10-30T02:47:35;14;14;
63305;PMS5003;50735;52.060;1.248;2022-10-30T02:50:02;9;9;
63305;PMS5003;50735;52.060;1.248;2022-10-30T02:52:29;14;11;
63305;PMS5003;50735;52.060;1.248;2022-10-30T02:54:57;15;10;
63305;PMS5003;50735;52.060;1.248;2022-10-30T02:57:23;13;10;
63305;PMS5003;50735;52.060;1.248;2022-10-30T02:59:50;13;11;
63305;PMS5003;50735;52.060;1.248;2022-10-30T03:02:16;17;14;
63305;PMS5003;50735;52.060;1.248;2022-10-30T03:04:43;17;12;
63305;PMS5003;50735;52.060;1.248;2022-10-30T03:07:10;13;10;
63305;PMS5003;50735;52.060;1.248;2022-10-30T03:09:37;11;9;
63305;PMS5003;50735;52.060;1.248;2022-10-30T03:12:03;14;11;
63305;PMS5003;50735;52.060;1.248;2022-10-30T03:14:30;11;11;
63305;PMS5003;50735;52.060;1.248;2022-10-30T03:16:58;9;8;
63305;PMS5003;50735;52.060;1.248;2022-10-30T03:19:25;13;10;
63305;PMS5003;50735;52.060;1.248;2022-10-30T03:21:51;17;12;
63305;PMS5003;50735;52.060;1.248;2022-10-30T03:24:19;13;8;
63305;PMS5003;50735;52.060;1.248;2022-10-30T03:26:46;11;7;
63305;PMS5003;50735;52.060;1.248;2022-10-30T03:29:13;11;11;
63305;PMS5003;50735;52.060;1.248;2022-10-30T03:31:40;10;9;
63305;PMS5003;50735;52.060;1.248;2022-10-30T03:34:06;11;9;
63305;PMS5003;50735;52.060;1.248;2022-10-30T03:36:33;10;7;
63305;PMS5003;50735;52.060;1.248;2022-10-30T03:39:00;8;6;
63305;PMS5003;50735;52.060;1.248;2022-10-30T03:41:26;12;7;
63305;PMS5003;50735;52.060;1.248;2022-10-30T03:43:53;9;9;
63305;PMS5003;50735;52.060;1.248;2022-10-30T03:46:20;10;7;
63305;PMS5003;50735;52.060;1.248;2022-10-30T03:48:47;10;9;
63305;PMS5003;50735;52.060;1.248;2022-10-30T03:51:15;11;10;
63305;PMS5003;50735;52.060;1.248;2022-10-30T03:53:42;16;10;
63305;PMS5003;50735;52.060;1.248;2022-10-30T03:56:09;18;9;
63305;PMS5003;50735;52.060;1.248;2022-10-30T03:58:36;8;8;
63305;PMS5003;50735;52.060;1.248;2022-10-30T04:01:04;10;8;
63305;PMS5003;50735;52.060;1.248;2022-10-30T04:03:32;9;9;
63305;PMS5003;50735;52.060;1.248;2022-10-30T04:05:59;13;12;
63305;PMS5003;50735;52.060;1.248;2022-10-30T04:08:26;14;12;
63305;PMS5003;50735;52.060;1.248;2022-10-30T04:10:53;16;11;
63305;PMS5003;50735;52.060;1.248;2022-10-30T04:13:21;14;12;
63305;PMS5003;50735;52.060;1.248;2022-10-30T04:15:48;14;12;
63305;PMS5003;50735;52.060;1.248;2022-10-30T04:18:14;22;18;
63305;PMS5003;50735;52.060;1.248;2022-10-30T04:20:42;15;12;
63305;PMS5003;50735;52.060;1.248;2022-10-30T04:23:11;22;20;
63305;PMS5003;50735;52.060;1.248;2022-10-30T04:25:39;17;14;
63305;PMS5003;50735;52.060;1.248;2022-10-30T04:28:06;18;14;
63305;PMS5003;50735;52.060;1.248;2022-10-30T04:30:33;10;10;
63305;PMS5003;50735;52.060;1.248;2022-10-30T04:33:02;21;15;
63305;PMS5003;50735;52.060;1.248;2022-10-30T04:35:31;16;13;
63305;PMS5003;50735;52.060;1.248;2022-10-30T04:37:59;19;16;
63305;PMS5003;50735;52.060;1.248;2022-10-30T04:40:28;20;18;
63305;PMS5003;50735;52.060;1.248;2022-10-30T04:42:56;26;15;
63305;PMS5003;50735;52.060;1.248;2022-10-30T04:45:24;17;14;
63305;PMS5003;50735;52.060;1.248;2022-10-30T04:47:51;33;20;
63305;PMS5003;50735;52.060;1.248;2022-10-30T04:50:18;20;14;
63305;PMS5003;50735;52.060;1.248;2022-10-30T04:52:46;15;10;
63305;PMS5003;50735;52.060;1.248;2022-10-30T04:55:13;13;13;
63305;PMS5003;50735;52.060;1.248;2022-10-30T04:57:39;16;13;
63305;PMS5003;50735;52.060;1.248;2022-10-30T05:00:07;13;13;
63305;PMS5003;50735;52.060;1.248;2022-10-30T05:02:36;17;13;
63305;PMS5003;50735;52.060;1.248;2022-10-30T05:05:03;18;13;
63305;PMS5003;50735;52.060;1.248;2022-10-30T05:07:31;18;11;
63305;PMS5003;50735;52.060;1.248;2022-10-30T05:09:57;19;16;
63305;PMS5003;50735;52.060;1.248;2022-10-30T05:12:24;16;13;
63305;PMS5003;50735;52.060;1.248;2022-10-30T05:14:51;15;14;
63305;PMS5003;50735;52.060;1.248;2022-10-30T05:17:17;14;13;
63305;PMS5003;50735;52.060;1.248;2022-10-30T05:19:44;14;11;
63305;PMS5003;50735;52.060;1.248;2022-10-30T05:22:11;15;11;
63305;PMS5003;50735;52.060;1.248;2022-10-30T05:24:38;16;11;
63305;PMS5003;50735;52.060;1.248;2022-10-30T05:27:04;14;11;
63305;PMS5003;50735;52.060;1.248;2022-10-30T05:29:31;12;12;
63305;PMS5003;50735;52.060;1.248;2022-10-30T05:31:57;11;11;
63305;PMS5003;50735;52.060;1.248;2022-10-30T05:34:24;18;12;
63305;PMS5003;50735;52.060;1.248;2022-10-30T05:36:51;13;10;
63305;PMS5003;50735;52.060;1.248;2022-10-30T05:39:18;14;12;
63305;PMS5003;50735;52.060;1.248;2022-10-30T05:41:44;14;10;
63305;PMS5003;50735;52.060;1.248;2022-10-30T05:44:11;10;10;
63305;PMS5003;50735;52.060;1.248;2022-10-30T05:46:37;12;9;
63305;PMS5003;50735;52.060;1.248;2022-10-30T05:49:04;11;10;
63305;PMS5003;50735;52.060;1.248;2022-10-30T05:51:31;12;9;
63305;PMS5003;50735;52.060;1.248;2022-10-30T05:53:58;10;9;
63305;PMS5003;50735;52.060;1.248;2022-10-30T05:56:25;9;6;
63305;PMS5003;50735;52.060;1.248;2022-10-30T05:58:52;7;6;
63305;PMS5003;50735;52.060;1.248;2022-10-30T06:01:19;12;7;
63305;PMS5003;50735;52.060;1.248;2022-10-30T06:03:45;9;9;
63305;PMS5003;50735;52.060;1.248;2022-10-30T06:06:12;9;6;
63305;PMS5003;50735;52.060;1.248;2022-10-30T06:08:38;9;6;
63305;PMS5003;50735;52.060;1.248;2022-10-30T06:11:05;11;8;
63305;PMS5003;50735;52.060;1.248;2022-10-30T06:13:32;6;6;
63305;PMS5003;50735;52.060;1.248;2022-10-30T06:15:58;9;8;
63305;PMS5003;50735;52.060;1.248;2022-10-30T06:18:25;7;6;
63305;PMS5003;50735;52.060;1.248;2022-10-30T06:20:53;8;6;
63305;PMS5003;50735;52.060;1.248;2022-10-30T06:23:20;6;6;
63305;PMS5003;50735;52.060;1.248;2022-10-30T06:25:46;9;6;
63305;PMS5003;50735;52.060;1.248;2022-10-30T06:28:14;4;4;
63305;PMS5003;50735;52.060;1.248;2022-10-30T06:30:40;7;5;
63305;PMS5003;50735;52.060;1.248;2022-10-30T06:33:08;9;7;
63305;PMS5003;50735;52.060;1.248;2022-10-30T06:35:36;8;6;
63305;PMS5003;50735;52.060;1.248;2022-10-30T06:38:02;4;4;
63305;PMS5003;50735;52.060;1.248;2022-10-30T06:40:29;7;5;
63305;PMS5003;50735;52.060;1.248;2022-10-30T06:42:56;3;3;
63305;PMS5003;50735;52.060;1.248;2022-10-30T06:45:23;6;4;
63305;PMS5003;50735;52.060;1.248;2022-10-30T06:47:50;4;4;
63305;PMS5003;50735;52.060;1.248;2022-10-30T06:50:21;5;5;
63305;PMS5003;50735;52.060;1.248;2022-10-30T06:52:53;6;4;
63305;PMS5003;50735;52.060;1.248;2022-10-30T06:55:21;7;3;
63305;PMS5003;50735;52.060;1.248;2022-10-30T06:57:52;5;4;
63305;PMS5003;50735;52.060;1.248;2022-10-30T07:00:19;7;4;
63305;PMS5003;50735;52.060;1.248;2022-10-30T07:02:53;4;4;
63305;PMS5003;50735;52.060;1.248;2022-10-30T07:05:21;4;4;
63305;PMS5003;50735;52.060;1.248;2022-10-30T07:07:47;5;2;
63305;PMS5003;50735;52.060;1.248;2022-10-30T07:10:15;5;3;
63305;PMS5003;50735;52.060;1.248;2022-10-30T07:12:42;8;4;
63305;PMS5003;50735;52.060;1.248;2022-10-30T07:15:16;3;3;
63305;PMS5003;50735;52.060;1.248;2022-10-30T07:17:50;7;5;
63305;PMS5003;50735;52.060;1.248;2022-10-30T07:20:17;4;3;
63305;PMS5003;50735;52.060;1.248;2022-10-30T07:22:43;2;2;
63305;PMS5003;50735;52.060;1.248;2022-10-30T07:25:10;5;3;
63305;PMS5003;50735;52.060;1.248;2022-10-30T07:27:40;7;4;
63305;PMS5003;50735;52.060;1.248;2022-10-30T07:30:07;7;3;
63305;PMS5003;50735;52.060;1.248;2022-10-30T07:32:35;5;3;
63305;PMS5003;50735;52.060;1.248;2022-10-30T07:35:02;7;3;
63305;PMS5003;50735;52.060;1.248;2022-10-30T07:37:29;2;2;
63305;PMS5003;50735;52.060;1.248;2022-10-30T07:39:56;6;2;
63305;PMS5003;50735;52.060;1.248;2022-10-30T07:42:22;1;1;
63305;PMS5003;50735;52.060;1.248;2022-10-30T07:44:49;7;4;
63305;PMS5003;50735;52.060;1.248;2022-10-30T07:47:17;2;2;
63305;PMS5003;50735;52.060;1.248;2022-10-30T07:49:43;3;1;
63305;PMS5003;50735;52.060;1.248;2022-10-30T07:52:10;2;2;
63305;PMS5003;50735;52.060;1.248;2022-10-30T07:54:36;3;3;
63305;PMS5003;50735;52.060;1.248;2022-10-30T07:57:03;2;2;
63305;PMS5003;50735;52.060;1.248;2022-10-30T07:59:29;3;3;
63305;PMS5003;50735;52.060;1.248;2022-10-30T08:01:56;4;2;
63305;PMS5003;50735;52.060;1.248;2022-10-30T08:04:22;5;4;
63305;PMS5003;50735;52.060;1.248;2022-10-30T08:06:49;1;1;
63305;PMS5003;50735;52.060;1.248;2022-10-30T08:09:15;5;3;
63305;PMS5003;50735;52.060;1.248;2022-10-30T08:11:42;5;2;
63305;PMS5003;50735;52.060;1.248;2022-10-30T08:14:08;6;5;
63305;PMS5003;50735;52.060;1.248;2022-10-30T08:16:35;5;5;
63305;PMS5003;50735;52.060;1.248;2022-10-30T08:19:02;1;1;
63305;PMS5003;50735;52.060;1.248;2022-10-30T08:21:29;10;4;
63305;PMS5003;50735;52.060;1.248;2022-10-30T08:23:56;6;5;
63305;PMS5003;50735;52.060;1.248;2022-10-30T08:26:22;6;4;
63305;PMS5003;50735;52.060;1.248;2022-10-30T08:28:49;4;4;
63305;PMS5003;50735;52.060;1.248;2022-10-30T08:31:16;9;2;
63305;PMS5003;50735;52.060;1.248;2022-10-30T08:33:42;7;2;
63305;PMS5003;50735;52.060;1.248;2022-10-30T08:36:09;2;2;
63305;PMS5003;50735;52.060;1.248;2022-10-30T08:38:36;2;2;
63305;PMS5003;50735;52.060;1.248;2022-10-30T08:41:02;4;3;
63305;PMS5003;50735;52.060;1.248;2022-10-30T08:43:29;7;0;
63305;PMS5003;50735;52.060;1.248;2022-10-30T08:45:56;4;3;
63305;PMS5003;50735;52.060;1.248;2022-10-30T08:48:23;7;5;
63305;PMS5003;50735;52.060;1.248;2022-10-30T08:50:50;7;3;
63305;PMS5003;50735;52.060;1.248;2022-10-30T08:53:16;2;2;
63305;PMS5003;50735;52.060;1.248;2022-10-30T08:55:43;9;3;
63305;PMS5003;50735;52.060;1.248;2022-10-30T08:58:09;9;4;
63305;PMS5003;50735;52.060;1.248;2022-10-30T09:00:36;4;2;
63305;PMS5003;50735;52.060;1.248;2022-10-30T09:03:02;3;3;
63305;PMS5003;50735;52.060;1.248;2022-10-30T09:05:29;3;1;
63305;PMS5003;50735;52.060;1.248;2022-10-30T09:07:56;1;1;
63305;PMS5003;50735;52.060;1.248;2022-10-30T09:10:24;6;2;
63305;PMS5003;50735;52.060;1.248;2022-10-30T09:12:52;5;1;
63305;PMS5003;50735;52.060;1.248;2022-10-30T09:15:19;5;5;
63305;PMS5003;50735;52.060;1.248;2022-10-30T09:17:46;2;1;
63305;PMS5003;50735;52.060;1.248;2022-10-30T09:20:12;2;2;
63305;PMS5003;50735;52.060;1.248;2022-10-30T09:22:39;3;3;
63305;PMS5003;50735;52.060;1.248;2022-10-30T09:25:07;2;2;
63305;PMS5003;50735;52.060;1.248;2022-10-30T09:27:36;5;2;
63305;PMS5003;50735;52.060;1.248;2022-10-30T09:30:03;6;1;
63305;PMS5003;50735;52.060;1.248;2022-10-30T09:32:31;5;2;
63305;PMS5003;50735;52.060;1.248;2022-10-30T09:34:57;7;4;
63305;PMS5003;50735;52.060;1.248;2022-10-30T09:37:24;3;3;
63305;PMS5003;50735;52.060;1.248;2022-10-30T09:39:51;9;8;
63305;PMS5003;50735;52.060;1.248;2022-10-30T09:42:37;4;3;
63305;PMS5003;50735;52.060;1.248;2022-10-30T09:45:10;3;3;
63305;PMS5003;50735;52.060;1.248;2022-10-30T09:47:51;4;3;
63305;PMS5003;50735;52.060;1.248;2022-10-30T09:50:28;3;3;
63305;PMS5003;50735;52.060;1.248;2022-10-30T09:53:02;5;2;
63305;PMS5003;50735;52.060;1.248;2022-10-30T09:55:39;4;3;
63305;PMS5003;50735;52.060;1.248;2022-10-30T09:58:17;2;2;
63305;PMS5003;50735;52.060;1.248;2022-10-30T10:00:52;4;3;
63305;PMS5003;50735;52.060;1.248;2022-10-30T10:03:38;7;5;
63305;PMS5003;50735;52.060;1.248;2022-10-30T10:06:16;10;9;
63305;PMS5003;50735;52.060;1.248;2022-10-30T10:08:47;9;7;
63305;PMS5003;50735;52.060;1.248;2022-10-30T10:11:20;6;6;
63305;PMS5003;50735;52.060;1.248;2022-10-30T10:13:51;4;4;
63305;PMS5003;50735;52.060;1.248;2022-10-30T10:16:23;8;6;
63305;PMS5003;50735;52.060;1.248;2022-10-30T10:18:56;3;1;
63305;PMS5003;50735;52.060;1.248;2022-10-30T10:21:28;2;2;
63305;PMS5003;50735;52.060;1.248;2022-10-30T10:23:55;5;2;
63305;PMS5003;50735;52.060;1.248;2022-10-30T10:26:27;5;2;
63305;PMS5003;50735;52.060;1.248;2022-10-30T10:29:00;3;3;
63305;PMS5003;50735;52.060;1.248;2022-10-30T10:31:42;2;2;
63305;PMS5003;50735;52.060;1.248;2022-10-30T10:34:20;3;3;
63305;PMS5003;50735;52.060;1.248;2022-10-30T10:37:00;4;2;
63305;PMS5003;50735;52.060;1.248;2022-10-30T10:39:44;3;2;
63305;PMS5003;50735;52.060;1.248;2022-10-30T10:42:23;2;2;
63305;PMS5003;50735;52.060;1.248;2022-10-30T10:45:04;3;0;
63305;PMS5003;50735;52.060;1.248;2022-10-30T10:47:50;0;0;
63305;PMS5003;50735;52.060;1.248;2022-10-30T10:50:31;2;2;
63305;PMS5003;50735;52.060;1.248;2022-10-30T10:53:04;1;1;
63305;PMS5003;50735;52.060;1.248;2022-10-30T10:55:36;0;0;
63305;PMS5003;50735;52.060;1.248;2022-10-30T10:58:07;4;0;
63305;PMS5003;50735;52.060;1.248;2022-10-30T11:00:40;6;1;
63305;PMS5003;50735;52.060;1.248;2022-10-30T11:03:09;2;2;
63305;PMS5003;50735;52.060;1.248;2022-10-30T11:05:40;0;0;
63305;PMS5003;50735;52.060;1.248;2022-10-30T11:08:15;6;3;
63305;PMS5003;50735;52.060;1.248;2022-10-30T11:10:45;2;2;
63305;PMS5003;50735;52.060;1.248;2022-10-30T11:13:14;2;0;
63305;PMS5003;50735;52.060;1.248;2022-10-30T11:15:46;5;2;
63305;PMS5003;50735;52.060;1.248;2022-10-30T11:18:20;6;3;
63305;PMS5003;50735;52.060;1.248;2022-10-30T11:20:49;0;0;
63305;PMS5003;50735;52.060;1.248;2022-10-30T11:23:39;2;1;
63305;PMS5003;50735;52.060;1.248;2022-10-30T11:26:24;0;0;
63305;PMS5003;50735;52.060;1.248;2022-10-30T11:28:54;2;1;
63305;PMS5003;50735;52.060;1.248;2022-10-30T11:31:24;4;2;
63305;PMS5003;50735;52.060;1.248;2022-10-30T11:33:53;3;1;
63305;PMS5003;50735;52.060;1.248;2022-10-30T11:36:21;1;1;
63305;PMS5003;50735;52.060;1.248;2022-10-30T11:38:49;2;1;
63305;PMS5003;50735;52.060;1.248;2022-10-30T11:41:17;1;1;
63305;PMS5003;50735;52.060;1.248;2022-10-30T11:43:46;3;2;
63305;PMS5003;50735;52.060;1.248;2022-10-30T11:46:18;1;1;
63305;PMS5003;50735;52.060;1.248;2022-10-30T11:48:47;2;1;
63305;PMS5003;50735;52.060;1.248;2022-10-30T11:51:15;0;0;
63305;PMS5003;50735;52.060;1.248;2022-10-30T11:53:58;1;1;
63305;PMS5003;50735;52.060;1.248;2022-10-30T11:56:26;1;0;
63305;PMS5003;50735;52.060;1.248;2022-10-30T11:58:54;5;2;
63305;PMS5003;50735;52.060;1.248;2022-10-30T12:01:24;3;3;
63305;PMS5003;50735;52.060;1.248;2022-10-30T12:03:53;2;2;
63305;PMS5003;50735;52.060;1.248;2022-10-30T12:06:25;1;1;
63305;PMS5003;50735;52.060;1.248;2022-10-30T12:09:01;3;2;
63305;PMS5003;50735;52.060;1.248;2022-10-30T12:11:34;3;2;
63305;PMS5003;50735;52.060;1.248;2022-10-30T12:14:03;5;4;
63305;PMS5003;50735;52.060;1.248;2022-10-30T12:16:31;1;1;
63305;PMS5003;50735;52.060;1.248;2022-10-30T12:18:59;2;2;
63305;PMS5003;50735;52.060;1.248;2022-10-30T12:21:29;2;1;
63305;PMS5003;50735;52.060;1.248;2022-10-30T12:24:01;4;3;
63305;PMS5003;50735;52.060;1.248;2022-10-30T12:26:31;1;1;
63305;PMS5003;50735;52.060;1.248;2022-10-30T12:29:00;4;2;
63305;PMS5003;50735;52.060;1.248;2022-10-30T12:31:33;1;1;
63305;PMS5003;50735;52.060;1.248;2022-10-30T12:34:06;2;2;
63305;PMS5003;50735;52.060;1.248;2022-10-30T12:36:42;2;1;
63305;PMS5003;50735;52.060;1.248;2022-10-30T12:39:15;1;1;
63305;PMS5003;50735;52.060;1.248;2022-10-30T12:41:51;0;0;
63305;PMS5003;50735;52.060;1.248;2022-10-30T12:44:24;0;0;
63305;PMS5003;50735;52.060;1.248;2022-10-30T12:46:55;2;2;
63305;PMS5003;50735;52.060;1.248;2022-10-30T12:49:28;2;0;
63305;PMS5003;50735;52.060;1.248;2022-10-30T12:52:05;4;1;
63305;PMS5003;50735;52.060;1.248;2022-10-30T12:54:38;1;1;
63305;PMS5003;50735;52.060;1.248;2022-10-30T12:57:11;0;0;
63305;PMS5003;50735;52.060;1.248;2022-10-30T12:59:44;3;3;
63305;PMS5003;50735;52.060;1.248;2022-10-30T13:02:20;5;2;
63305;PMS5003;50735;52.060;1.248;2022-10-30T13:04:58;5;4;
63305;PMS5003;50735;52.060;1.248;2022-10-30T13:07:30;1;1;
63305;PMS5003;50735;52.060;1.248;2022-10-30T13:10:20;2;2;
63305;PMS5003;50735;52.060;1.248;2022-10-30T13:12:54;2;1;
63305;PMS5003;50735;52.060;1.248;2022-10-30T13:15:25;3;1;
63305;PMS5003;50735;52.060;1.248;2022-10-30T13:17:56;1;1;
63305;PMS5003;50735;52.060;1.248;2022-10-30T13:20:24;0;0;
63305;PMS5003;50735;52.060;1.248;2022-10-30T13:22:55;5;3;
63305;PMS5003;50735;52.060;1.248;2022-10-30T13:25:30;6;3;
63305;PMS5003;50735;52.060;1.248;2022-10-30T13:28:02;2;0;
63305;PMS5003;50735;52.060;1.248;2022-10-30T13:30:33;3;3;
63305;PMS5003;50735;52.060;1.248;2022-10-30T13:33:06;1;1;
63305;PMS5003;50735;52.060;1.248;2022-10-30T13:35:41;4;1;
63305;PMS5003;50735;52.060;1.248;2022-10-30T13:38:24;0;0;
63305;PMS5003;50735;52.060;1.248;2022-10-30T13:41:05;0;0;
63305;PMS5003;50735;52.060;1.248;2022-10-30T13:43:38;1;1;
63305;PMS5003;50735;52.060;1.248;2022-10-30T13:46:22;1;1;
63305;PMS5003;50735;52.060;1.248;2022-10-30T13:49:05;4;0;
63305;PMS5003;50735;52.060;1.248;2022-10-30T13:51:43;4;1;
63305;PMS5003;50735;52.060;1.248;2022-10-30T13:54:17;0;0;
63305;PMS5003;50735;52.060;1.248;2022-10-30T13:56:46;0;0;
63305;PMS5003;50735;52.060;1.248;2022-10-30T13:59:19;0;0;
63305;PMS5003;50735;52.060;1.248;2022-10-30T14:01:54;1;1;
63305;PMS5003;50735;52.060;1.248;2022-10-30T14:04:28;4;1;
63305;PMS5003;50735;52.060;1.248;2022-10-30T14:07:07;2;2;
63305;PMS5003;50735;52.060;1.248;2022-10-30T14:09:46;2;2;
63305;PMS5003;50735;52.060;1.248;2022-10-30T14:13:04;0;0;
63305;PMS5003;50735;52.060;1.248;2022-10-30T14:15:40;2;1;
63305;PMS5003;50735;52.060;1.248;2022-10-30T14:19:13;2;1;
63305;PMS5003;50735;52.060;1.248;2022-10-30T14:21:42;0;0;
63305;PMS5003;50735;52.060;1.248;2022-10-30T14:24:17;0;0;
63305;PMS5003;50735;52.060;1.248;2022-10-30T14:26:47;4;1;
63305;PMS5003;50735;52.060;1.248;2022-10-30T14:29:40;2;1;
63305;PMS5003;50735;52.060;1.248;2022-10-30T14:32:31;1;1;
63305;PMS5003;50735;52.060;1.248;2022-10-30T14:35:01;3;0;
63305;PMS5003;50735;52.060;1.248;2022-10-30T14:38:33;2;0;
63305;PMS5003;50735;52.060;1.248;2022-10-30T14:41:03;1;1;
63305;PMS5003;50735;52.060;1.248;2022-10-30T14:43:43;4;2;
63305;PMS5003;50735;52.060;1.248;2022-10-30T14:46:17;5;0;
63305;PMS5003;50735;52.060;1.248;2022-10-30T14:48:52;3;1;
63305;PMS5003;50735;52.060;1.248;2022-10-30T14:51:33;3;2;
63305;PMS5003;50735;52.060;1.248;2022-10-30T14:54:06;1;1;
63305;PMS5003;50735;52.060;1.248;2022-10-30T14:56:44;3;0;
63305;PMS5003;50735;52.060;1.248;2022-10-30T14:59:19;1;0;
63305;PMS5003;50735;52.060;1.248;2022-10-30T15:01:53;0;0;
63305;PMS5003;50735;52.060;1.248;2022-10-30T15:04:26;0;0;
63305;PMS5003;50735;52.060;1.248;2022-10-30T15:07:05;3;1;
63305;PMS5003;50735;52.060;1.248;2022-10-30T15:09:44;2;1;
63305;PMS5003;50735;52.060;1.248;2022-10-30T15:12:29;2;2;
63305;PMS5003;50735;52.060;1.248;2022-10-30T15:15:10;2;1;
63305;PMS5003;50735;52.060;1.248;2022-10-30T15:17:40;1;1;
63305;PMS5003;50735;52.060;1.248;2022-10-30T15:20:13;3;0;
63305;PMS5003;50735;52.060;1.248;2022-10-30T15:22:46;0;0;
63305;PMS5003;50735;52.060;1.248;2022-10-30T15:25:17;2;1;
63305;PMS5003;50735;52.060;1.248;2022-10-30T15:27:49;2;1;
63305;PMS5003;50735;52.060;1.248;2022-10-30T15:30:18;2;2;
63305;PMS5003;50735;52.060;1.248;2022-10-30T15:32:47;1;1;
63305;PMS5003;50735;52.060;1.248;2022-10-30T15:35:15;0;0;
63305;PMS5003;50735;52.060;1.248;2022-10-30T15:37:59;3;1;
63305;PMS5003;50735;52.060;1.248;2022-10-30T15:40:28;1;1;
63305;PMS5003;50735;52.060;1.248;2022-10-30T15:42:55;0;0;
63305;PMS5003;50735;52.060;1.248;2022-10-30T15:45:33;1;1;
63305;PMS5003;50735;52.060;1.248;2022-10-30T15:48:03;4;2;
63305;PMS5003;50735;52.060;1.248;2022-10-30T15:50:33;4;1;
63305;PMS5003;50735;52.060;1.248;2022-10-30T15:53:01;2;1;
63305;PMS5003;50735;52.060;1.248;2022-10-30T15:55:29;3;1;
63305;PMS5003;50735;52.060;1.248;2022-10-30T15:57:58;3;1;
63305;PMS5003;50735;52.060;1.248;2022-10-30T16:00:29;3;2;
63305;PMS5003;50735;52.060;1.248;2022-10-30T16:02:59;2;1;
63305;PMS5003;50735;52.060;1.248;2022-10-30T16:05:28;1;1;
63305;PMS5003;50735;52.060;1.248;2022-10-30T16:07:55;1;1;
63305;PMS5003;50735;52.060;1.248;2022-10-30T16:10:24;2;2;
63305;PMS5003;50735;52.060;1.248;2022-10-30T16:12:52;3;3;
63305;PMS5003;50735;52.060;1.248;2022-10-30T16:15:21;5;2;
63305;PMS5003;50735;52.060;1.248;2022-10-30T16:17:58;5;3;
63305;PMS5003;50735;52.060;1.248;2022-10-30T16:20:31;2;2;
63305;PMS5003;50735;52.060;1.248;2022-10-30T16:23:00;1;1;
63305;PMS5003;50735;52.060;1.248;2022-10-30T16:25:29;1;1;
63305;PMS5003;50735;52.060;1.248;2022-10-30T16:27:55;2;2;
63305;PMS5003;50735;52.060;1.248;2022-10-30T16:30:22;1;0;
63305;PMS5003;50735;52.060;1.248;2022-10-30T16:32:50;4;2;
63305;PMS5003;50735;52.060;1.248;2022-10-30T16:35:18;4;1;
63305;PMS5003;50735;52.060;1.248;2022-10-30T16:37:47;3;1;
63305;PMS5003;50735;52.060;1.248;2022-10-30T16:40:15;3;3;
63305;PMS5003;50735;52.060;1.248;2022-10-30T16:42:44;2;1;
63305;PMS5003;50735;52.060;1.248;2022-10-30T16:45:43;3;3;
63305;PMS5003;50735;52.060;1.248;2022-10-30T16:48:13;5;1;
63305;PMS5003;50735;52.060;1.248;2022-10-30T16:50:45;2;2;
63305;PMS5003;50735;52.060;1.248;2022-10-30T16:53:14;3;1;
63305;PMS5003;50735;52.060;1.248;2022-10-30T16:55:44;2;1;
63305;PMS5003;50735;52.060;1.248;2022-10-30T16:58:11;2;2;
63305;PMS5003;50735;52.060;1.248;2022-10-30T17:00:41;2;2;
63305;PMS5003;50735;52.060;1.248;2022-10-30T17:03:14;1;1;
63305;PMS5003;50735;52.060;1.248;2022-10-30T17:05:43;4;2;